sensor_id;sensor_type;location;lat;lon;timestamp;pressure;altitude;pressure_sealevel;temperature
37536;BMP180;23379;51.554;6.736;2023-10-08T00:02:04;101727.00;;;18.30
37536;BMP180;23379;51.554;6.736;2023-10-08T00:04:32;101736.00;;;18.30
37536;BMP180;23379;51.554;6.736;2023-10-08T00:07:03;101736.00;;;18.30
37536;BMP180;23379;51.554;6.736;2023-10-08T00:09:32;101733.00;;;18.30
37536;BMP180;23379;51.554;6.736;2023-10-08T00:12:01;101738.00;;;18.20
37536;BMP180;23379;51.554;6.736;2023-10-08T00:14:26;101740.00;;;18.20
37536;BMP180;23379;51.554;6.736;2023-10-08T00:16:53;101744.00;;;18.40
37536;BMP180;23379;51.554;6.736;2023-10-08T00:19:19;101746.00;;;18.30
37536;BMP180;23379;51.554;6.736;2023-10-08T00:21:44;101751.00;;;18.30
37536;BMP180;23379;51.554;6.736;2023-10-08T00:24:11;101756.00;;;18.10
37536;BMP180;23379;51.554;6.736;2023-10-08T00:26:39;101756.00;;;18.20
37536;BMP180;23379;51.554;6.736;2023-10-08T00:29:08;101766.00;;;18.30
37536;BMP180;23379;51.554;6.736;2023-10-08T00:31:47;101768.00;;;18.30
37536;BMP180;23379;51.554;6.736;2023-10-08T00:34:15;101753.00;;;18.20
37536;BMP180;23379;51.554;6.736;2023-10-08T00:36:44;101749.00;;;18.30
37536;BMP180;23379;51.554;6.736;2023-10-08T00:39:11;101774.00;;;18.30
37536;BMP180;23379;51.554;6.736;2023-10-08T00:41:44;101768.00;;;18.20
37536;BMP180;23379;51.554;6.736;2023-10-08T00:44:11;101776.00;;;18.30
37536;BMP180;23379;51.554;6.736;2023-10-08T00:46:55;101753.00;;;18.30
37536;BMP180;23379;51.554;6.736;2023-10-08T00:49:25;101772.00;;;18.20
37536;BMP180;23379;51.554;6.736;2023-10-08T00:52:00;101764.00;;;18.20
37536;BMP180;23379;51.554;6.736;2023-10-08T00:54:32;101759.00;;;18.10
37536;BMP180;23379;51.554;6.736;2023-10-08T00:56:59;101776.00;;;18.00
37536;BMP180;23379;51.554;6.736;2023-10-08T00:59:29;101775.00;;;18.00
37536;BMP180;23379;51.554;6.736;2023-10-08T01:01:59;101751.00;;;18.10
37536;BMP180;23379;51.554;6.736;2023-10-08T01:04:29;101783.00;;;18.00
37536;BMP180;23379;51.554;6.736;2023-10-08T01:07:01;101781.00;;;18.20
37536;BMP180;23379;51.554;6.736;2023-10-08T01:09:35;101778.00;;;18.10
37536;BMP180;23379;51.554;6.736;2023-10-08T01:12:17;101775.00;;;18.00
37536;BMP180;23379;51.554;6.736;2023-10-08T01:14:54;101778.00;;;18.10
37536;BMP180;23379;51.554;6.736;2023-10-08T01:17:23;101802.00;;;18.00
37536;BMP180;23379;51.554;6.736;2023-10-08T01:19:57;101788.00;;;17.90
37536;BMP180;23379;51.554;6.736;2023-10-08T01:22:33;101780.00;;;17.80
37536;BMP180;23379;51.554;6.736;2023-10-08T01:24:59;101797.00;;;17.70
37536;BMP180;23379;51.554;6.736;2023-10-08T01:27:30;101785.00;;;17.90
37536;BMP180;23379;51.554;6.736;2023-10-08T01:29:59;101782.00;;;17.90
37536;BMP180;23379;51.554;6.736;2023-10-08T01:32:37;101790.00;;;18.00
37536;BMP180;23379;51.554;6.736;2023-10-08T01:35:02;101777.00;;;17.70
37536;BMP180;23379;51.554;6.736;2023-10-08T01:37:30;101776.00;;;17.90
37536;BMP180;23379;51.554;6.736;2023-10-08T01:39:59;101770.00;;;17.90
37536;BMP180;23379;51.554;6.736;2023-10-08T01:42:26;101781.00;;;17.70
37536;BMP180;23379;51.554;6.736;2023-10-08T01:44:53;101783.00;;;17.70
37536;BMP180;23379;51.554;6.736;2023-10-08T01:47:21;101777.00;;;17.70
37536;BMP180;23379;51.554;6.736;2023-10-08T01:49:50;101765.00;;;17.80
37536;BMP180;23379;51.554;6.736;2023-10-08T01:52:18;101771.00;;;17.80
37536;BMP180;23379;51.554;6.736;2023-10-08T01:54:47;101784.00;;;17.60
37536;BMP180;23379;51.554;6.736;2023-10-08T01:57:13;101777.00;;;17.80
37536;BMP180;23379;51.554;6.736;2023-10-08T01:59:40;101774.00;;;17.70
37536;BMP180;23379;51.554;6.736;2023-10-08T02:02:05;101768.00;;;17.80
37536;BMP180;23379;51.554;6.736;2023-10-08T02:04:34;101779.00;;;17.60
37536;BMP180;23379;51.554;6.736;2023-10-08T02:07:03;101780.00;;;17.70
37536;BMP180;23379;51.554;6.736;2023-10-08T02:09:32;101779.00;;;17.60
37536;BMP180;23379;51.554;6.736;2023-10-08T02:11:58;101768.00;;;17.50
37536;BMP180;23379;51.554;6.736;2023-10-08T02:14:24;101772.00;;;17.60
37536;BMP180;23379;51.554;6.736;2023-10-08T02:16:50;101759.00;;;17.60
37536;BMP180;23379;51.554;6.736;2023-10-08T02:19:20;101746.00;;;17.50
37536;BMP180;23379;51.554;6.736;2023-10-08T02:21:52;101737.00;;;17.40
37536;BMP180;23379;51.554;6.736;2023-10-08T02:24:20;101734.00;;;17.40
37536;BMP180;23379;51.554;6.736;2023-10-08T02:26:47;101718.00;;;17.60
37536;BMP180;23379;51.554;6.736;2023-10-08T02:29:13;101735.00;;;17.20
37536;BMP180;23379;51.554;6.736;2023-10-08T02:31:41;101780.00;;;17.50
37536;BMP180;23379;51.554;6.736;2023-10-08T02:34:07;101789.00;;;17.50
37536;BMP180;23379;51.554;6.736;2023-10-08T02:36:37;101749.00;;;17.30
37536;BMP180;23379;51.554;6.736;2023-10-08T02:39:04;101759.00;;;17.40
37536;BMP180;23379;51.554;6.736;2023-10-08T02:41:32;101735.00;;;17.30
37536;BMP180;23379;51.554;6.736;2023-10-08T02:43:58;101738.00;;;17.30
37536;BMP180;23379;51.554;6.736;2023-10-08T02:46:24;101776.00;;;17.10
37536;BMP180;23379;51.554;6.736;2023-10-08T02:48:52;101790.00;;;17.20
37536;BMP180;23379;51.554;6.736;2023-10-08T02:51:18;101790.00;;;17.30
37536;BMP180;23379;51.554;6.736;2023-10-08T02:53:46;101796.00;;;17.40
37536;BMP180;23379;51.554;6.736;2023-10-08T02:56:12;101790.00;;;17.20
37536;BMP180;23379;51.554;6.736;2023-10-08T02:58:41;101818.00;;;17.40
37536;BMP180;23379;51.554;6.736;2023-10-08T03:01:09;101813.00;;;17.50
37536;BMP180;23379;51.554;6.736;2023-10-08T03:03:41;101799.00;;;17.40
37536;BMP180;23379;51.554;6.736;2023-10-08T03:06:12;101815.00;;;17.50
37536;BMP180;23379;51.554;6.736;2023-10-08T03:08:40;101818.00;;;17.50
37536;BMP180;23379;51.554;6.736;2023-10-08T03:11:09;101827.00;;;17.60
37536;BMP180;23379;51.554;6.736;2023-10-08T03:13:43;101834.00;;;17.60
37536;BMP180;23379;51.554;6.736;2023-10-08T03:16:12;101822.00;;;17.50
37536;BMP180;23379;51.554;6.736;2023-10-08T03:18:38;101832.00;;;17.50
37536;BMP180;23379;51.554;6.736;2023-10-08T03:21:08;101810.00;;;17.50
37536;BMP180;23379;51.554;6.736;2023-10-08T03:23:47;101823.00;;;17.20
37536;BMP180;23379;51.554;6.736;2023-10-08T03:26:16;101818.00;;;17.30
37536;BMP180;23379;51.554;6.736;2023-10-08T03:29:03;101827.00;;;17.20
37536;BMP180;23379;51.554;6.736;2023-10-08T03:31:33;101803.00;;;17.20
37536;BMP180;23379;51.554;6.736;2023-10-08T03:34:14;101793.00;;;17.20
37536;BMP180;23379;51.554;6.736;2023-10-08T03:36:43;101780.00;;;17.40
37536;BMP180;23379;51.554;6.736;2023-10-08T03:39:16;101787.00;;;17.10
37536;BMP180;23379;51.554;6.736;2023-10-08T03:41:44;101810.00;;;17.10
37536;BMP180;23379;51.554;6.736;2023-10-08T03:44:31;101783.00;;;17.20
37536;BMP180;23379;51.554;6.736;2023-10-08T03:46:56;101781.00;;;17.30
37536;BMP180;23379;51.554;6.736;2023-10-08T03:49:22;101777.00;;;17.30
37536;BMP180;23379;51.554;6.736;2023-10-08T03:51:48;101819.00;;;17.20
37536;BMP180;23379;51.554;6.736;2023-10-08T03:54:18;101831.00;;;17.30
37536;BMP180;23379;51.554;6.736;2023-10-08T03:56:55;101827.00;;;17.40
37536;BMP180;23379;51.554;6.736;2023-10-08T03:59:21;101796.00;;;17.40
37536;BMP180;23379;51.554;6.736;2023-10-08T04:02:00;101789.00;;;17.10
37536;BMP180;23379;51.554;6.736;2023-10-08T04:04:49;101803.00;;;17.00
37536;BMP180;23379;51.554;6.736;2023-10-08T04:07:20;101802.00;;;16.90
37536;BMP180;23379;51.554;6.736;2023-10-08T04:09:58;101801.00;;;17.10
37536;BMP180;23379;51.554;6.736;2023-10-08T04:12:36;101821.00;;;17.10
37536;BMP180;23379;51.554;6.736;2023-10-08T04:15:09;101813.00;;;17.00
37536;BMP180;23379;51.554;6.736;2023-10-08T04:17:37;101816.00;;;16.80
37536;BMP180;23379;51.554;6.736;2023-10-08T04:20:14;101821.00;;;16.70
37536;BMP180;23379;51.554;6.736;2023-10-08T04:23:18;101779.00;;;16.90
37536;BMP180;23379;51.554;6.736;2023-10-08T04:25:47;101825.00;;;16.70
37536;BMP180;23379;51.554;6.736;2023-10-08T04:28:19;101831.00;;;17.00
37536;BMP180;23379;51.554;6.736;2023-10-08T04:30:46;101816.00;;;16.90
37536;BMP180;23379;51.554;6.736;2023-10-08T04:33:13;101816.00;;;17.10
37536;BMP180;23379;51.554;6.736;2023-10-08T04:35:41;101850.00;;;17.20
37536;BMP180;23379;51.554;6.736;2023-10-08T04:38:27;101815.00;;;17.30
37536;BMP180;23379;51.554;6.736;2023-10-08T04:40:54;101816.00;;;16.70
37536;BMP180;23379;51.554;6.736;2023-10-08T04:43:22;101829.00;;;16.80
37536;BMP180;23379;51.554;6.736;2023-10-08T04:45:53;101840.00;;;16.80
37536;BMP180;23379;51.554;6.736;2023-10-08T04:48:19;101823.00;;;16.90
37536;BMP180;23379;51.554;6.736;2023-10-08T04:50:48;101823.00;;;17.00
37536;BMP180;23379;51.554;6.736;2023-10-08T04:53:33;101852.00;;;16.90
37536;BMP180;23379;51.554;6.736;2023-10-08T04:56:03;101879.00;;;17.00
37536;BMP180;23379;51.554;6.736;2023-10-08T04:58:41;101875.00;;;16.80
37536;BMP180;23379;51.554;6.736;2023-10-08T05:01:07;101871.00;;;16.80
37536;BMP180;23379;51.554;6.736;2023-10-08T05:03:53;101898.00;;;16.70
37536;BMP180;23379;51.554;6.736;2023-10-08T05:06:28;101874.00;;;16.70
37536;BMP180;23379;51.554;6.736;2023-10-08T05:09:03;101879.00;;;16.80
37536;BMP180;23379;51.554;6.736;2023-10-08T05:11:51;101889.00;;;16.70
37536;BMP180;23379;51.554;6.736;2023-10-08T05:14:20;101892.00;;;16.80
37536;BMP180;23379;51.554;6.736;2023-10-08T05:17:02;101879.00;;;16.50
37536;BMP180;23379;51.554;6.736;2023-10-08T05:19:43;101880.00;;;16.70
37536;BMP180;23379;51.554;6.736;2023-10-08T05:22:27;101877.00;;;16.60
37536;BMP180;23379;51.554;6.736;2023-10-08T05:24:52;101872.00;;;16.50
37536;BMP180;23379;51.554;6.736;2023-10-08T05:27:37;101880.00;;;16.50
37536;BMP180;23379;51.554;6.736;2023-10-08T05:30:27;101861.00;;;16.40
37536;BMP180;23379;51.554;6.736;2023-10-08T05:33:18;101847.00;;;16.50
37536;BMP180;23379;51.554;6.736;2023-10-08T05:35:51;101847.00;;;16.40
37536;BMP180;23379;51.554;6.736;2023-10-08T05:38:27;101839.00;;;16.10
37536;BMP180;23379;51.554;6.736;2023-10-08T05:40:57;101860.00;;;16.20
37536;BMP180;23379;51.554;6.736;2023-10-08T05:43:30;101846.00;;;16.30
37536;BMP180;23379;51.554;6.736;2023-10-08T05:46:14;101884.00;;;16.10
37536;BMP180;23379;51.554;6.736;2023-10-08T05:48:54;101864.00;;;16.40
37536;BMP180;23379;51.554;6.736;2023-10-08T05:51:29;101891.00;;;16.30
37536;BMP180;23379;51.554;6.736;2023-10-08T05:54:21;101891.00;;;16.40
37536;BMP180;23379;51.554;6.736;2023-10-08T05:56:59;101894.00;;;16.50
37536;BMP180;23379;51.554;6.736;2023-10-08T06:02:31;101863.00;;;16.80
37536;BMP180;23379;51.554;6.736;2023-10-08T06:05:09;101864.00;;;16.80
37536;BMP180;23379;51.554;6.736;2023-10-08T06:07:51;101894.00;;;16.60
37536;BMP180;23379;51.554;6.736;2023-10-08T06:13:13;101895.00;;;16.60
37536;BMP180;23379;51.554;6.736;2023-10-08T06:15:51;101912.00;;;16.90
37536;BMP180;23379;51.554;6.736;2023-10-08T06:18:33;101913.00;;;16.70
37536;BMP180;23379;51.554;6.736;2023-10-08T06:21:03;101896.00;;;16.80
37536;BMP180;23379;51.554;6.736;2023-10-08T06:23:34;101906.00;;;16.80
37536;BMP180;23379;51.554;6.736;2023-10-08T06:26:00;101929.00;;;16.80
37536;BMP180;23379;51.554;6.736;2023-10-08T06:28:36;101923.00;;;16.60
37536;BMP180;23379;51.554;6.736;2023-10-08T06:31:04;101926.00;;;16.60
37536;BMP180;23379;51.554;6.736;2023-10-08T06:33:37;101922.00;;;16.80
37536;BMP180;23379;51.554;6.736;2023-10-08T06:36:04;101925.00;;;16.90
37536;BMP180;23379;51.554;6.736;2023-10-08T06:38:43;101915.00;;;16.80
37536;BMP180;23379;51.554;6.736;2023-10-08T06:41:13;101902.00;;;16.70
37536;BMP180;23379;51.554;6.736;2023-10-08T06:43:39;101942.00;;;17.00
37536;BMP180;23379;51.554;6.736;2023-10-08T06:46:05;101962.00;;;16.90
37536;BMP180;23379;51.554;6.736;2023-10-08T06:48:37;101964.00;;;16.90
37536;BMP180;23379;51.554;6.736;2023-10-08T06:51:08;101973.00;;;17.10
37536;BMP180;23379;51.554;6.736;2023-10-08T06:53:38;101973.00;;;17.20
37536;BMP180;23379;51.554;6.736;2023-10-08T06:56:04;101959.00;;;17.20
37536;BMP180;23379;51.554;6.736;2023-10-08T06:58:33;101949.00;;;17.30
37536;BMP180;23379;51.554;6.736;2023-10-08T07:00:58;101957.00;;;17.30
37536;BMP180;23379;51.554;6.736;2023-10-08T07:03:24;101951.00;;;17.40
37536;BMP180;23379;51.554;6.736;2023-10-08T07:05:51;101983.00;;;16.80
37536;BMP180;23379;51.554;6.736;2023-10-08T07:08:23;101989.00;;;16.80
37536;BMP180;23379;51.554;6.736;2023-10-08T07:10:50;101987.00;;;17.00
37536;BMP180;23379;51.554;6.736;2023-10-08T07:13:16;101990.00;;;17.00
37536;BMP180;23379;51.554;6.736;2023-10-08T07:15:44;102000.00;;;17.00
37536;BMP180;23379;51.554;6.736;2023-10-08T07:18:11;101994.00;;;17.00
37536;BMP180;23379;51.554;6.736;2023-10-08T07:20:39;102007.00;;;17.30
37536;BMP180;23379;51.554;6.736;2023-10-08T07:23:06;102000.00;;;17.50
37536;BMP180;23379;51.554;6.736;2023-10-08T07:25:37;101971.00;;;17.50
37536;BMP180;23379;51.554;6.736;2023-10-08T07:28:04;101971.00;;;17.30
37536;BMP180;23379;51.554;6.736;2023-10-08T07:30:36;101961.00;;;17.40
37536;BMP180;23379;51.554;6.736;2023-10-08T07:33:04;101959.00;;;17.70
37536;BMP180;23379;51.554;6.736;2023-10-08T07:35:29;101961.00;;;17.40
37536;BMP180;23379;51.554;6.736;2023-10-08T07:37:55;101978.00;;;17.40
37536;BMP180;23379;51.554;6.736;2023-10-08T07:40:20;101984.00;;;17.50
37536;BMP180;23379;51.554;6.736;2023-10-08T07:42:46;101989.00;;;17.70
37536;BMP180;23379;51.554;6.736;2023-10-08T07:45:17;102005.00;;;17.80
37536;BMP180;23379;51.554;6.736;2023-10-08T07:47:43;101987.00;;;17.70
37536;BMP180;23379;51.554;6.736;2023-10-08T07:50:08;101991.00;;;17.60
37536;BMP180;23379;51.554;6.736;2023-10-08T07:52:37;102000.00;;;17.50
37536;BMP180;23379;51.554;6.736;2023-10-08T07:55:03;101992.00;;;17.60
37536;BMP180;23379;51.554;6.736;2023-10-08T07:57:32;101992.00;;;17.40
37536;BMP180;23379;51.554;6.736;2023-10-08T07:59:58;102007.00;;;17.50
37536;BMP180;23379;51.554;6.736;2023-10-08T08:02:43;101988.00;;;17.30
37536;BMP180;23379;51.554;6.736;2023-10-08T08:05:08;102009.00;;;17.00
37536;BMP180;23379;51.554;6.736;2023-10-08T08:07:34;102004.00;;;16.70
37536;BMP180;23379;51.554;6.736;2023-10-08T08:09:59;102004.00;;;16.20
37536;BMP180;23379;51.554;6.736;2023-10-08T08:12:25;102041.00;;;16.10
37536;BMP180;23379;51.554;6.736;2023-10-08T08:15:03;101982.00;;;16.50
37536;BMP180;23379;51.554;6.736;2023-10-08T08:17:49;102038.00;;;16.30
37536;BMP180;23379;51.554;6.736;2023-10-08T08:20:14;101989.00;;;15.60
37536;BMP180;23379;51.554;6.736;2023-10-08T08:22:43;101999.00;;;15.20
37536;BMP180;23379;51.554;6.736;2023-10-08T08:25:15;102043.00;;;15.30
37536;BMP180;23379;51.554;6.736;2023-10-08T08:27:42;102019.00;;;15.60
37536;BMP180;23379;51.554;6.736;2023-10-08T08:30:12;102042.00;;;15.70
37536;BMP180;23379;51.554;6.736;2023-10-08T08:32:41;102011.00;;;16.00
37536;BMP180;23379;51.554;6.736;2023-10-08T08:35:12;102035.00;;;15.60
37536;BMP180;23379;51.554;6.736;2023-10-08T08:37:42;102043.00;;;15.70
37536;BMP180;23379;51.554;6.736;2023-10-08T08:40:09;102025.00;;;16.00
37536;BMP180;23379;51.554;6.736;2023-10-08T08:42:35;102045.00;;;15.60
37536;BMP180;23379;51.554;6.736;2023-10-08T08:45:03;102040.00;;;15.00
37536;BMP180;23379;51.554;6.736;2023-10-08T08:47:37;102023.00;;;15.10
37536;BMP180;23379;51.554;6.736;2023-10-08T08:50:03;102008.00;;;15.00
37536;BMP180;23379;51.554;6.736;2023-10-08T08:52:40;102057.00;;;15.50
37536;BMP180;23379;51.554;6.736;2023-10-08T08:55:38;102008.00;;;15.90
37536;BMP180;23379;51.554;6.736;2023-10-08T08:58:04;102010.00;;;15.90
37536;BMP180;23379;51.554;6.736;2023-10-08T09:07:09;102056.00;;;15.30
37536;BMP180;23379;51.554;6.736;2023-10-08T09:09:36;102021.00;;;15.00
37536;BMP180;23379;51.554;6.736;2023-10-08T09:12:05;102105.00;;;15.30
37536;BMP180;23379;51.554;6.736;2023-10-08T09:14:30;102113.00;;;15.20
37536;BMP180;23379;51.554;6.736;2023-10-08T09:17:00;102047.00;;;15.20
37536;BMP180;23379;51.554;6.736;2023-10-08T09:19:26;102097.00;;;15.60
37536;BMP180;23379;51.554;6.736;2023-10-08T09:22:06;102091.00;;;15.00
37536;BMP180;23379;51.554;6.736;2023-10-08T09:28:15;102078.00;;;15.10
37536;BMP180;23379;51.554;6.736;2023-10-08T09:30:43;102111.00;;;15.40
37536;BMP180;23379;51.554;6.736;2023-10-08T09:33:21;102087.00;;;15.20
37536;BMP180;23379;51.554;6.736;2023-10-08T09:35:51;102062.00;;;15.40
37536;BMP180;23379;51.554;6.736;2023-10-08T09:39:02;102012.00;;;15.70
37536;BMP180;23379;51.554;6.736;2023-10-08T09:41:57;102111.00;;;15.80
37536;BMP180;23379;51.554;6.736;2023-10-08T09:44:24;102096.00;;;15.80
37536;BMP180;23379;51.554;6.736;2023-10-08T09:47:02;102093.00;;;15.80
37536;BMP180;23379;51.554;6.736;2023-10-08T09:49:40;102105.00;;;15.50
37536;BMP180;23379;51.554;6.736;2023-10-08T09:52:08;102103.00;;;15.60
37536;BMP180;23379;51.554;6.736;2023-10-08T09:54:49;102097.00;;;16.20
37536;BMP180;23379;51.554;6.736;2023-10-08T09:57:16;102095.00;;;15.90
37536;BMP180;23379;51.554;6.736;2023-10-08T09:59:44;102093.00;;;15.80
37536;BMP180;23379;51.554;6.736;2023-10-08T10:02:11;102103.00;;;15.90
37536;BMP180;23379;51.554;6.736;2023-10-08T10:04:42;102099.00;;;15.70
37536;BMP180;23379;51.554;6.736;2023-10-08T10:07:12;102101.00;;;15.50
37536;BMP180;23379;51.554;6.736;2023-10-08T10:09:43;102102.00;;;15.50
37536;BMP180;23379;51.554;6.736;2023-10-08T10:12:11;102110.00;;;15.40
37536;BMP180;23379;51.554;6.736;2023-10-08T10:14:45;102096.00;;;15.30
37536;BMP180;23379;51.554;6.736;2023-10-08T10:17:20;102105.00;;;15.20
37536;BMP180;23379;51.554;6.736;2023-10-08T10:19:59;102104.00;;;15.20
37536;BMP180;23379;51.554;6.736;2023-10-08T10:24:56;102094.00;;;15.50
37536;BMP180;23379;51.554;6.736;2023-10-08T10:27:21;102114.00;;;15.20
37536;BMP180;23379;51.554;6.736;2023-10-08T10:29:47;102111.00;;;15.40
37536;BMP180;23379;51.554;6.736;2023-10-08T10:32:14;102112.00;;;15.40
37536;BMP180;23379;51.554;6.736;2023-10-08T10:34:41;102103.00;;;15.30
37536;BMP180;23379;51.554;6.736;2023-10-08T10:37:07;102116.00;;;15.60
37536;BMP180;23379;51.554;6.736;2023-10-08T10:39:53;102126.00;;;15.30
37536;BMP180;23379;51.554;6.736;2023-10-08T10:42:20;102131.00;;;15.60
37536;BMP180;23379;51.554;6.736;2023-10-08T10:44:47;102133.00;;;15.60
37536;BMP180;23379;51.554;6.736;2023-10-08T10:47:17;102112.00;;;14.90
37536;BMP180;23379;51.554;6.736;2023-10-08T10:49:47;102127.00;;;14.70
37536;BMP180;23379;51.554;6.736;2023-10-08T10:55:06;102136.00;;;15.10
37536;BMP180;23379;51.554;6.736;2023-10-08T10:57:42;102100.00;;;15.20
37536;BMP180;23379;51.554;6.736;2023-10-08T11:00:08;102109.00;;;15.20
37536;BMP180;23379;51.554;6.736;2023-10-08T11:10:38;102125.00;;;15.40
37536;BMP180;23379;51.554;6.736;2023-10-08T11:13:07;102078.00;;;15.70
37536;BMP180;23379;51.554;6.736;2023-10-08T11:15:43;102125.00;;;15.90
37536;BMP180;23379;51.554;6.736;2023-10-08T11:18:14;102081.00;;;15.30
37536;BMP180;23379;51.554;6.736;2023-10-08T11:20:40;102126.00;;;15.50
37536;BMP180;23379;51.554;6.736;2023-10-08T11:23:09;102114.00;;;16.20
37536;BMP180;23379;51.554;6.736;2023-10-08T11:25:58;102105.00;;;16.00
37536;BMP180;23379;51.554;6.736;2023-10-08T11:28:34;102113.00;;;15.90
37536;BMP180;23379;51.554;6.736;2023-10-08T11:31:05;102104.00;;;15.60
37536;BMP180;23379;51.554;6.736;2023-10-08T11:33:38;102105.00;;;16.40
37536;BMP180;23379;51.554;6.736;2023-10-08T11:36:05;102096.00;;;16.70
37536;BMP180;23379;51.554;6.736;2023-10-08T11:38:53;102113.00;;;16.80
37536;BMP180;23379;51.554;6.736;2023-10-08T11:41:19;102099.00;;;16.30
37536;BMP180;23379;51.554;6.736;2023-10-08T11:43:52;102111.00;;;16.00
37536;BMP180;23379;51.554;6.736;2023-10-08T11:46:31;102100.00;;;16.70
37536;BMP180;23379;51.554;6.736;2023-10-08T11:49:04;102090.00;;;17.40
37536;BMP180;23379;51.554;6.736;2023-10-08T11:51:32;102096.00;;;17.20
37536;BMP180;23379;51.554;6.736;2023-10-08T11:53:59;102082.00;;;17.50
37536;BMP180;23379;51.554;6.736;2023-10-08T11:56:25;102099.00;;;17.40
37536;BMP180;23379;51.554;6.736;2023-10-08T11:58:51;102090.00;;;16.70
37536;BMP180;23379;51.554;6.736;2023-10-08T12:01:17;102085.00;;;16.30
37536;BMP180;23379;51.554;6.736;2023-10-08T12:03:46;102068.00;;;16.80
37536;BMP180;23379;51.554;6.736;2023-10-08T12:06:14;102086.00;;;16.60
37536;BMP180;23379;51.554;6.736;2023-10-08T12:08:41;102086.00;;;16.80
37536;BMP180;23379;51.554;6.736;2023-10-08T12:11:07;102072.00;;;16.80
37536;BMP180;23379;51.554;6.736;2023-10-08T12:13:37;102054.00;;;16.30
37536;BMP180;23379;51.554;6.736;2023-10-08T12:16:03;102073.00;;;16.70
37536;BMP180;23379;51.554;6.736;2023-10-08T12:18:32;102072.00;;;16.30
37536;BMP180;23379;51.554;6.736;2023-10-08T12:21:04;102082.00;;;16.40
37536;BMP180;23379;51.554;6.736;2023-10-08T12:23:30;102059.00;;;16.50
37536;BMP180;23379;51.554;6.736;2023-10-08T12:25:59;102078.00;;;16.80
37536;BMP180;23379;51.554;6.736;2023-10-08T12:28:25;102077.00;;;16.30
37536;BMP180;23379;51.554;6.736;2023-10-08T12:30:54;102088.00;;;16.60
37536;BMP180;23379;51.554;6.736;2023-10-08T12:33:24;102087.00;;;16.50
37536;BMP180;23379;51.554;6.736;2023-10-08T12:35:50;102077.00;;;16.20
37536;BMP180;23379;51.554;6.736;2023-10-08T12:38:19;102066.00;;;16.50
37536;BMP180;23379;51.554;6.736;2023-10-08T13:24:48;102009.00;;;16.70
37536;BMP180;23379;51.554;6.736;2023-10-08T13:27:13;102001.00;;;16.50
37536;BMP180;23379;51.554;6.736;2023-10-08T13:29:39;101980.00;;;16.00
37536;BMP180;23379;51.554;6.736;2023-10-08T13:32:04;101982.00;;;16.30
37536;BMP180;23379;51.554;6.736;2023-10-08T13:34:30;101948.00;;;16.60
37536;BMP180;23379;51.554;6.736;2023-10-08T13:36:56;101966.00;;;16.80
37536;BMP180;23379;51.554;6.736;2023-10-08T13:39:21;101965.00;;;16.50
37536;BMP180;23379;51.554;6.736;2023-10-08T13:41:47;101957.00;;;17.10
37536;BMP180;23379;51.554;6.736;2023-10-08T13:44:17;101970.00;;;16.60
37536;BMP180;23379;51.554;6.736;2023-10-08T13:46:44;101962.00;;;17.10
37536;BMP180;23379;51.554;6.736;2023-10-08T13:49:14;101967.00;;;17.20
37536;BMP180;23379;51.554;6.736;2023-10-08T13:51:41;101953.00;;;18.30
37536;BMP180;23379;51.554;6.736;2023-10-08T13:54:09;101961.00;;;19.20
37536;BMP180;23379;51.554;6.736;2023-10-08T13:56:36;101965.00;;;19.20
37536;BMP180;23379;51.554;6.736;2023-10-08T13:59:03;101965.00;;;19.20
37536;BMP180;23379;51.554;6.736;2023-10-08T14:01:39;101960.00;;;19.10
37536;BMP180;23379;51.554;6.736;2023-10-08T14:04:06;101962.00;;;19.10
37536;BMP180;23379;51.554;6.736;2023-10-08T14:06:32;101973.00;;;18.70
37536;BMP180;23379;51.554;6.736;2023-10-08T14:08:59;101973.00;;;18.00
37536;BMP180;23379;51.554;6.736;2023-10-08T14:11:26;101972.00;;;17.90
37536;BMP180;23379;51.554;6.736;2023-10-08T14:13:55;101971.00;;;18.10
37536;BMP180;23379;51.554;6.736;2023-10-08T14:16:21;101975.00;;;17.90
37536;BMP180;23379;51.554;6.736;2023-10-08T14:18:54;101942.00;;;17.90
37536;BMP180;23379;51.554;6.736;2023-10-08T14:21:20;101934.00;;;18.00
37536;BMP180;23379;51.554;6.736;2023-10-08T14:23:50;101964.00;;;17.80
37536;BMP180;23379;51.554;6.736;2023-10-08T14:26:17;101947.00;;;18.00
37536;BMP180;23379;51.554;6.736;2023-10-08T14:28:46;101960.00;;;18.10
37536;BMP180;23379;51.554;6.736;2023-10-08T14:31:20;101963.00;;;18.20
37536;BMP180;23379;51.554;6.736;2023-10-08T14:33:50;101967.00;;;18.10
37536;BMP180;23379;51.554;6.736;2023-10-08T14:36:23;101964.00;;;18.30
37536;BMP180;23379;51.554;6.736;2023-10-08T14:39:07;101966.00;;;18.00
37536;BMP180;23379;51.554;6.736;2023-10-08T14:41:51;101970.00;;;17.60
37536;BMP180;23379;51.554;6.736;2023-10-08T14:44:35;101959.00;;;17.20
37536;BMP180;23379;51.554;6.736;2023-10-08T14:47:03;101948.00;;;16.90
37536;BMP180;23379;51.554;6.736;2023-10-08T14:49:29;101951.00;;;16.60
37536;BMP180;23379;51.554;6.736;2023-10-08T14:51:54;101968.00;;;16.80
37536;BMP180;23379;51.554;6.736;2023-10-08T14:54:20;101939.00;;;17.10
37536;BMP180;23379;51.554;6.736;2023-10-08T14:56:46;101966.00;;;17.10
37536;BMP180;23379;51.554;6.736;2023-10-08T14:59:11;101952.00;;;17.30
37536;BMP180;23379;51.554;6.736;2023-10-08T15:01:37;101938.00;;;16.80
37536;BMP180;23379;51.554;6.736;2023-10-08T15:04:02;101944.00;;;16.90
37536;BMP180;23379;51.554;6.736;2023-10-08T15:06:31;101941.00;;;16.40
37536;BMP180;23379;51.554;6.736;2023-10-08T15:08:57;101952.00;;;16.60
37536;BMP180;23379;51.554;6.736;2023-10-08T15:11:23;101953.00;;;16.70
37536;BMP180;23379;51.554;6.736;2023-10-08T15:13:50;101941.00;;;16.60
37536;BMP180;23379;51.554;6.736;2023-10-08T15:16:21;101941.00;;;16.70
37536;BMP180;23379;51.554;6.736;2023-10-08T15:18:52;101950.00;;;17.20
37536;BMP180;23379;51.554;6.736;2023-10-08T15:24:45;101891.00;;;17.00
37536;BMP180;23379;51.554;6.736;2023-10-08T15:27:11;101930.00;;;17.00
37536;BMP180;23379;51.554;6.736;2023-10-08T15:29:39;101891.00;;;17.00
37536;BMP180;23379;51.554;6.736;2023-10-08T15:32:07;101944.00;;;16.70
37536;BMP180;23379;51.554;6.736;2023-10-08T15:34:32;101865.00;;;16.50